sensor_id;sensor_type;location;lat;lon;timestamp;P1;durP1;ratioP1;P2;durP2;ratioP2
6392;SDS011;3229;42.674;23.282;2023-04-01T00:01:25;11.93;;;8.67;;
6392;SDS011;3229;42.674;23.282;2023-04-01T00:03:53;11.30;;;7.00;;
6392;SDS011;3229;42.674;23.282;2023-04-01T00:06:21;13.13;;;8.50;;
6392;SDS011;3229;42.674;23.282;2023-04-01T00:08:48;10.23;;;7.13;;
6392;SDS011;3229;42.674;23.282;2023-04-01T00:11:15;13.93;;;8.10;;
6392;SDS011;3229;42.674;23.282;2023-04-01T00:13:43;12.80;;;8.17;;
6392;SDS011;3229;42.674;23.282;2023-04-01T00:16:10;12.50;;;7.37;;
6392;SDS011;3229;42.674;23.282;2023-04-01T00:18:37;12.93;;;8.63;;
6392;SDS011;3229;42.674;23.282;2023-04-01T00:21:06;15.37;;;8.37;;
6392;SDS011;3229;42.674;23.282;2023-04-01T00:23:33;13.07;;;8.03;;
6392;SDS011;3229;42.674;23.282;2023-04-01T00:26:01;13.60;;;8.23;;
6392;SDS011;3229;42.674;23.282;2023-04-01T00:28:29;16.33;;;9.40;;
6392;SDS011;3229;42.674;23.282;2023-04-01T00:30:56;20.37;;;9.33;;
6392;SDS011;3229;42.674;23.282;2023-04-01T00:33:23;14.17;;;8.93;;
6392;SDS011;3229;42.674;23.282;2023-04-01T00:35:50;14.13;;;8.60;;
6392;SDS011;3229;42.674;23.282;2023-04-01T00:38:18;13.73;;;9.07;;
6392;SDS011;3229;42.674;23.282;2023-04-01T00:40:45;12.23;;;8.97;;
6392;SDS011;3229;42.674;23.282;2023-04-01T00:43:13;16.47;;;8.70;;
6392;SDS011;3229;42.674;23.282;2023-04-01T00:45:43;16.83;;;9.60;;
6392;SDS011;3229;42.674;23.282;2023-04-01T00:48:11;16.53;;;9.47;;
6392;SDS011;3229;42.674;23.282;2023-04-01T00:50:42;15.17;;;8.93;;
6392;SDS011;3229;42.674;23.282;2023-04-01T00:53:12;14.43;;;8.83;;
6392;SDS011;3229;42.674;23.282;2023-04-01T00:55:43;15.50;;;9.03;;
6392;SDS011;3229;42.674;23.282;2023-04-01T00:58:16;14.43;;;9.83;;
6392;SDS011;3229;42.674;23.282;2023-04-01T01:00:46;13.33;;;8.80;;
6392;SDS011;3229;42.674;23.282;2023-04-01T01:03:14;14.27;;;9.40;;
6392;SDS011;3229;42.674;23.282;2023-04-01T01:05:52;14.73;;;9.13;;
6392;SDS011;3229;42.674;23.282;2023-04-01T01:08:39;15.13;;;9.33;;
6392;SDS011;3229;42.674;23.282;2023-04-01T01:11:19;18.67;;;9.90;;
6392;SDS011;3229;42.674;23.282;2023-04-01T01:13:53;16.10;;;9.37;;
6392;SDS011;3229;42.674;23.282;2023-04-01T01:16:26;13.70;;;8.30;;
6392;SDS011;3229;42.674;23.282;2023-04-01T01:18:57;16.80;;;8.47;;
6392;SDS011;3229;42.674;23.282;2023-04-01T01:21:39;13.80;;;9.13;;
6392;SDS011;3229;42.674;23.282;2023-04-01T01:24:40;13.30;;;9.00;;
6392;SDS011;3229;42.674;23.282;2023-04-01T01:27:20;14.97;;;9.30;;
6392;SDS011;3229;42.674;23.282;2023-04-01T01:29:54;15.73;;;9.07;;
6392;SDS011;3229;42.674;23.282;2023-04-01T01:32:40;15.43;;;8.83;;
6392;SDS011;3229;42.674;23.282;2023-04-01T01:35:24;10.90;;;7.93;;
6392;SDS011;3229;42.674;23.282;2023-04-01T01:37:56;11.73;;;8.20;;
6392;SDS011;3229;42.674;23.282;2023-04-01T01:40:26;14.93;;;8.00;;
6392;SDS011;3229;42.674;23.282;2023-04-01T01:42:56;15.40;;;7.83;;
6392;SDS011;3229;42.674;23.282;2023-04-01T01:45:26;13.17;;;7.93;;
6392;SDS011;3229;42.674;23.282;2023-04-01T01:47:55;10.60;;;7.10;;
6392;SDS011;3229;42.674;23.282;2023-04-01T01:50:24;11.63;;;7.70;;
6392;SDS011;3229;42.674;23.282;2023-04-01T01:53:00;16.50;;;7.87;;
6392;SDS011;3229;42.674;23.282;2023-04-01T01:55:30;11.07;;;6.93;;
6392;SDS011;3229;42.674;23.282;2023-04-01T01:57:59;10.63;;;7.10;;
6392;SDS011;3229;42.674;23.282;2023-04-01T02:00:30;11.60;;;7.20;;
6392;SDS011;3229;42.674;23.282;2023-04-01T02:02:58;9.43;;;6.80;;
6392;SDS011;3229;42.674;23.282;2023-04-01T02:05:27;10.50;;;6.60;;
6392;SDS011;3229;42.674;23.282;2023-04-01T02:07:59;12.63;;;6.63;;
6392;SDS011;3229;42.674;23.282;2023-04-01T02:10:28;16.40;;;6.30;;
6392;SDS011;3229;42.674;23.282;2023-04-01T02:13:00;11.07;;;6.37;;
6392;SDS011;3229;42.674;23.282;2023-04-01T02:15:32;12.13;;;7.03;;
6392;SDS011;3229;42.674;23.282;2023-04-01T02:18:07;10.37;;;6.63;;
6392;SDS011;3229;42.674;23.282;2023-04-01T02:20:36;10.40;;;6.07;;
6392;SDS011;3229;42.674;23.282;2023-04-01T02:23:05;13.53;;;6.47;;
6392;SDS011;3229;42.674;23.282;2023-04-01T02:25:34;12.27;;;6.73;;
6392;SDS011;3229;42.674;23.282;2023-04-01T02:28:02;11.13;;;5.93;;
6392;SDS011;3229;42.674;23.282;2023-04-01T02:30:32;11.73;;;6.23;;
6392;SDS011;3229;42.674;23.282;2023-04-01T02:33:01;8.67;;;6.13;;
6392;SDS011;3229;42.674;23.282;2023-04-01T02:35:29;10.83;;;6.03;;
6392;SDS011;3229;42.674;23.282;2023-04-01T02:37:57;12.10;;;6.33;;
6392;SDS011;3229;42.674;23.282;2023-04-01T02:40:25;9.00;;;6.00;;
6392;SDS011;3229;42.674;23.282;2023-04-01T02:42:51;6.73;;;5.70;;
6392;SDS011;3229;42.674;23.282;2023-04-01T02:45:18;10.37;;;6.20;;
6392;SDS011;3229;42.674;23.282;2023-04-01T02:47:45;7.83;;;5.67;;
6392;SDS011;3229;42.674;23.282;2023-04-01T02:50:12;11.07;;;5.73;;
6392;SDS011;3229;42.674;23.282;2023-04-01T02:52:39;10.13;;;5.90;;
6392;SDS011;3229;42.674;23.282;2023-04-01T02:55:07;9.23;;;5.63;;
6392;SDS011;3229;42.674;23.282;2023-04-01T02:57:35;11.47;;;6.13;;
6392;SDS011;3229;42.674;23.282;2023-04-01T03:00:02;9.67;;;5.53;;
6392;SDS011;3229;42.674;23.282;2023-04-01T03:02:30;10.27;;;6.50;;
6392;SDS011;3229;42.674;23.282;2023-04-01T03:04:57;10.93;;;5.63;;
6392;SDS011;3229;42.674;23.282;2023-04-01T03:07:24;11.83;;;6.87;;
6392;SDS011;3229;42.674;23.282;2023-04-01T03:09:50;8.93;;;5.73;;
6392;SDS011;3229;42.674;23.282;2023-04-01T03:12:18;11.73;;;6.33;;
6392;SDS011;3229;42.674;23.282;2023-04-01T03:14:45;10.43;;;6.00;;
6392;SDS011;3229;42.674;23.282;2023-04-01T03:17:12;10.90;;;6.53;;
6392;SDS011;3229;42.674;23.282;2023-04-01T03:19:39;11.27;;;5.60;;
6392;SDS011;3229;42.674;23.282;2023-04-01T03:22:05;8.57;;;6.40;;
6392;SDS011;3229;42.674;23.282;2023-04-01T03:24:32;8.83;;;6.33;;
6392;SDS011;3229;42.674;23.282;2023-04-01T03:26:59;7.90;;;5.70;;
6392;SDS011;3229;42.674;23.282;2023-04-01T03:29:27;9.83;;;5.97;;
6392;SDS011;3229;42.674;23.282;2023-04-01T03:31:54;11.17;;;6.63;;
6392;SDS011;3229;42.674;23.282;2023-04-01T03:34:22;10.23;;;5.87;;
6392;SDS011;3229;42.674;23.282;2023-04-01T03:36:49;10.17;;;5.93;;
6392;SDS011;3229;42.674;23.282;2023-04-01T03:39:16;10.63;;;6.23;;
6392;SDS011;3229;42.674;23.282;2023-04-01T03:41:44;10.90;;;5.83;;
6392;SDS011;3229;42.674;23.282;2023-04-01T03:44:12;7.10;;;5.57;;
6392;SDS011;3229;42.674;23.282;2023-04-01T03:46:40;12.97;;;6.07;;
6392;SDS011;3229;42.674;23.282;2023-04-01T03:49:07;9.53;;;6.10;;
6392;SDS011;3229;42.674;23.282;2023-04-01T03:51:36;9.27;;;5.57;;
6392;SDS011;3229;42.674;23.282;2023-04-01T03:54:03;9.87;;;6.13;;
6392;SDS011;3229;42.674;23.282;2023-04-01T03:56:31;11.80;;;6.90;;
6392;SDS011;3229;42.674;23.282;2023-04-01T03:58:58;11.63;;;6.50;;
6392;SDS011;3229;42.674;23.282;2023-04-01T04:01:28;10.07;;;6.10;;
6392;SDS011;3229;42.674;23.282;2023-04-01T04:03:57;10.80;;;5.67;;
6392;SDS011;3229;42.674;23.282;2023-04-01T04:06:25;8.57;;;5.63;;
6392;SDS011;3229;42.674;23.282;2023-04-01T04:08:52;9.70;;;5.93;;
6392;SDS011;3229;42.674;23.282;2023-04-01T04:11:21;9.87;;;5.73;;
6392;SDS011;3229;42.674;23.282;2023-04-01T04:13:48;8.17;;;5.63;;
6392;SDS011;3229;42.674;23.282;2023-04-01T04:16:17;8.53;;;5.27;;
6392;SDS011;3229;42.674;23.282;2023-04-01T04:18:44;7.47;;;5.87;;
6392;SDS011;3229;42.674;23.282;2023-04-01T04:21:13;8.27;;;5.43;;
6392;SDS011;3229;42.674;23.282;2023-04-01T04:23:41;8.80;;;5.57;;
6392;SDS011;3229;42.674;23.282;2023-04-01T04:26:08;8.83;;;5.67;;
6392;SDS011;3229;42.674;23.282;2023-04-01T04:28:36;9.40;;;6.13;;
6392;SDS011;3229;42.674;23.282;2023-04-01T04:31:03;8.13;;;5.40;;
6392;SDS011;3229;42.674;23.282;2023-04-01T04:33:31;9.47;;;5.30;;
6392;SDS011;3229;42.674;23.282;2023-04-01T04:35:58;7.43;;;5.57;;
6392;SDS011;3229;42.674;23.282;2023-04-01T04:38:27;8.53;;;5.43;;
6392;SDS011;3229;42.674;23.282;2023-04-01T04:40:54;8.80;;;5.43;;
6392;SDS011;3229;42.674;23.282;2023-04-01T04:43:21;9.03;;;5.43;;
6392;SDS011;3229;42.674;23.282;2023-04-01T04:45:48;9.23;;;5.40;;
6392;SDS011;3229;42.674;23.282;2023-04-01T04:48:15;9.07;;;5.63;;
6392;SDS011;3229;42.674;23.282;2023-04-01T04:50:45;9.40;;;5.70;;
6392;SDS011;3229;42.674;23.282;2023-04-01T04:53:13;9.10;;;5.40;;
6392;SDS011;3229;42.674;23.282;2023-04-01T04:55:44;10.53;;;6.07;;
6392;SDS011;3229;42.674;23.282;2023-04-01T04:58:11;13.63;;;6.80;;
6392;SDS011;3229;42.674;23.282;2023-04-01T05:00:38;8.53;;;5.43;;
6392;SDS011;3229;42.674;23.282;2023-04-01T05:03:05;9.93;;;5.33;;
6392;SDS011;3229;42.674;23.282;2023-04-01T05:05:31;6.73;;;5.10;;
6392;SDS011;3229;42.674;23.282;2023-04-01T05:08:00;8.43;;;5.00;;
6392;SDS011;3229;42.674;23.282;2023-04-01T05:10:27;8.93;;;5.20;;
6392;SDS011;3229;42.674;23.282;2023-04-01T05:12:55;9.47;;;6.07;;
6392;SDS011;3229;42.674;23.282;2023-04-01T05:15:22;9.87;;;4.93;;
6392;SDS011;3229;42.674;23.282;2023-04-01T05:17:50;9.13;;;6.07;;
6392;SDS011;3229;42.674;23.282;2023-04-01T05:20:16;9.37;;;4.00;;
6392;SDS011;3229;42.674;23.282;2023-04-01T05:22:43;6.17;;;3.33;;
6392;SDS011;3229;42.674;23.282;2023-04-01T05:25:10;20.53;;;3.60;;
6392;SDS011;3229;42.674;23.282;2023-04-01T05:27:37;15.63;;;4.30;;
6392;SDS011;3229;42.674;23.282;2023-04-01T05:30:06;10.83;;;3.60;;
6392;SDS011;3229;42.674;23.282;2023-04-01T05:32:33;8.67;;;3.80;;
6392;SDS011;3229;42.674;23.282;2023-04-01T05:35:00;9.87;;;4.00;;
6392;SDS011;3229;42.674;23.282;2023-04-01T05:37:27;4.60;;;3.50;;
6392;SDS011;3229;42.674;23.282;2023-04-01T05:39:54;7.33;;;4.20;;
6392;SDS011;3229;42.674;23.282;2023-04-01T05:42:20;8.73;;;4.33;;
6392;SDS011;3229;42.674;23.282;2023-04-01T05:44:47;5.70;;;3.43;;
6392;SDS011;3229;42.674;23.282;2023-04-01T05:47:15;6.10;;;3.40;;
6392;SDS011;3229;42.674;23.282;2023-04-01T05:49:42;6.70;;;3.70;;
6392;SDS011;3229;42.674;23.282;2023-04-01T05:52:09;8.55;;;3.97;;
6392;SDS011;3229;42.674;23.282;2023-04-01T05:54:35;7.07;;;3.50;;
6392;SDS011;3229;42.674;23.282;2023-04-01T05:57:02;6.13;;;4.00;;
6392;SDS011;3229;42.674;23.282;2023-04-01T05:59:29;5.53;;;3.50;;
6392;SDS011;3229;42.674;23.282;2023-04-01T06:01:57;4.88;;;3.80;;
6392;SDS011;3229;42.674;23.282;2023-04-01T06:04:26;4.95;;;3.47;;
6392;SDS011;3229;42.674;23.282;2023-04-01T06:06:58;5.95;;;3.88;;
6392;SDS011;3229;42.674;23.282;2023-04-01T06:09:26;4.60;;;3.55;;
6392;SDS011;3229;42.674;23.282;2023-04-01T06:12:00;6.82;;;3.60;;
6392;SDS011;3229;42.674;23.282;2023-04-01T06:14:45;4.82;;;3.85;;
6392;SDS011;3229;42.674;23.282;2023-04-01T06:17:25;6.18;;;3.20;;
6392;SDS011;3229;42.674;23.282;2023-04-01T06:19:59;7.07;;;3.83;;
6392;SDS011;3229;42.674;23.282;2023-04-01T06:22:41;5.97;;;3.50;;
6392;SDS011;3229;42.674;23.282;2023-04-01T06:25:41;4.63;;;3.28;;
6392;SDS011;3229;42.674;23.282;2023-04-01T06:28:30;7.65;;;3.55;;
6392;SDS011;3229;42.674;23.282;2023-04-01T06:31:22;7.25;;;3.92;;
6392;SDS011;3229;42.674;23.282;2023-04-01T06:34:03;5.50;;;3.25;;
6392;SDS011;3229;42.674;23.282;2023-04-01T06:36:49;6.78;;;3.10;;
6392;SDS011;3229;42.674;23.282;2023-04-01T06:39:36;5.63;;;3.22;;
6392;SDS011;3229;42.674;23.282;2023-04-01T06:45:04;4.97;;;3.35;;
6392;SDS011;3229;42.674;23.282;2023-04-01T06:47:43;6.45;;;3.15;;
6392;SDS011;3229;42.674;23.282;2023-04-01T06:50:22;6.75;;;3.40;;
6392;SDS011;3229;42.674;23.282;2023-04-01T06:52:58;6.90;;;3.53;;
6392;SDS011;3229;42.674;23.282;2023-04-01T06:55:34;3.95;;;3.10;;
6392;SDS011;3229;42.674;23.282;2023-04-01T06:58:10;5.68;;;3.58;;
6392;SDS011;3229;42.674;23.282;2023-04-01T07:00:43;5.43;;;3.40;;
6392;SDS011;3229;42.674;23.282;2023-04-01T07:03:15;9.63;;;3.60;;
6392;SDS011;3229;42.674;23.282;2023-04-01T07:05:46;4.95;;;3.13;;
6392;SDS011;3229;42.674;23.282;2023-04-01T07:08:16;5.65;;;3.50;;
6392;SDS011;3229;42.674;23.282;2023-04-01T07:10:47;6.43;;;3.97;;
6392;SDS011;3229;42.674;23.282;2023-04-01T07:13:18;8.50;;;4.07;;
6392;SDS011;3229;42.674;23.282;2023-04-01T07:15:54;8.30;;;3.97;;
6392;SDS011;3229;42.674;23.282;2023-04-01T07:18:28;6.90;;;4.05;;
6392;SDS011;3229;42.674;23.282;2023-04-01T07:21:01;4.15;;;3.53;;
6392;SDS011;3229;42.674;23.282;2023-04-01T07:23:31;7.78;;;4.68;;
6392;SDS011;3229;42.674;23.282;2023-04-01T07:26:05;7.22;;;4.65;;
6392;SDS011;3229;42.674;23.282;2023-04-01T07:28:41;6.75;;;3.40;;
6392;SDS011;3229;42.674;23.282;2023-04-01T07:31:11;4.93;;;3.95;;
6392;SDS011;3229;42.674;23.282;2023-04-01T07:33:47;6.75;;;3.83;;
6392;SDS011;3229;42.674;23.282;2023-04-01T07:36:26;5.05;;;3.35;;
6392;SDS011;3229;42.674;23.282;2023-04-01T07:39:08;22.98;;;4.10;;
6392;SDS011;3229;42.674;23.282;2023-04-01T07:41:47;4.78;;;3.92;;
6392;SDS011;3229;42.674;23.282;2023-04-01T07:44:22;6.35;;;3.55;;
6392;SDS011;3229;42.674;23.282;2023-04-01T07:46:56;9.77;;;4.05;;
6392;SDS011;3229;42.674;23.282;2023-04-01T07:49:33;8.65;;;3.75;;
6392;SDS011;3229;42.674;23.282;2023-04-01T07:52:08;10.80;;;3.78;;
6392;SDS011;3229;42.674;23.282;2023-04-01T07:54:43;8.52;;;4.40;;
6392;SDS011;3229;42.674;23.282;2023-04-01T07:57:15;6.93;;;3.90;;
6392;SDS011;3229;42.674;23.282;2023-04-01T07:59:48;10.60;;;4.00;;
6392;SDS011;3229;42.674;23.282;2023-04-01T08:02:26;5.55;;;4.00;;
6392;SDS011;3229;42.674;23.282;2023-04-01T08:05:04;5.07;;;3.88;;
6392;SDS011;3229;42.674;23.282;2023-04-01T08:07:42;9.40;;;4.40;;
6392;SDS011;3229;42.674;23.282;2023-04-01T08:10:14;6.93;;;3.95;;
6392;SDS011;3229;42.674;23.282;2023-04-01T08:12:48;4.95;;;4.38;;
6392;SDS011;3229;42.674;23.282;2023-04-01T08:15:25;7.20;;;3.92;;
6392;SDS011;3229;42.674;23.282;2023-04-01T08:18:04;5.93;;;3.65;;
6392;SDS011;3229;42.674;23.282;2023-04-01T08:20:38;7.68;;;4.53;;
6392;SDS011;3229;42.674;23.282;2023-04-01T08:23:11;4.47;;;3.63;;
6392;SDS011;3229;42.674;23.282;2023-04-01T08:25:44;6.22;;;4.05;;
6392;SDS011;3229;42.674;23.282;2023-04-01T08:28:17;8.20;;;4.10;;
6392;SDS011;3229;42.674;23.282;2023-04-01T08:30:51;4.85;;;3.85;;
6392;SDS011;3229;42.674;23.282;2023-04-01T08:33:24;5.97;;;3.85;;
6392;SDS011;3229;42.674;23.282;2023-04-01T08:35:54;6.18;;;3.72;;
6392;SDS011;3229;42.674;23.282;2023-04-01T08:38:24;4.75;;;3.67;;
6392;SDS011;3229;42.674;23.282;2023-04-01T08:41:01;6.68;;;4.50;;
6392;SDS011;3229;42.674;23.282;2023-04-01T08:43:51;6.18;;;4.32;;
6392;SDS011;3229;42.674;23.282;2023-04-01T08:49:42;11.88;;;4.20;;
6392;SDS011;3229;42.674;23.282;2023-04-01T08:52:42;4.55;;;3.55;;
6392;SDS011;3229;42.674;23.282;2023-04-01T08:55:30;6.53;;;4.13;;
6392;SDS011;3229;42.674;23.282;2023-04-01T08:58:16;11.30;;;4.45;;
6392;SDS011;3229;42.674;23.282;2023-04-01T09:00:54;5.65;;;3.47;;
6392;SDS011;3229;42.674;23.282;2023-04-01T09:03:44;6.88;;;3.92;;
6392;SDS011;3229;42.674;23.282;2023-04-01T09:06:47;7.15;;;3.97;;
6392;SDS011;3229;42.674;23.282;2023-04-01T09:12:26;8.60;;;3.95;;
6392;SDS011;3229;42.674;23.282;2023-04-01T09:18:08;9.95;;;3.85;;
6392;SDS011;3229;42.674;23.282;2023-04-01T09:20:44;7.70;;;4.18;;
6392;SDS011;3229;42.674;23.282;2023-04-01T09:23:24;8.95;;;3.38;;
6392;SDS011;3229;42.674;23.282;2023-04-01T09:26:17;6.35;;;3.40;;
6392;SDS011;3229;42.674;23.282;2023-04-01T09:28:55;7.20;;;3.50;;
6392;SDS011;3229;42.674;23.282;2023-04-01T09:31:38;8.82;;;3.70;;
6392;SDS011;3229;42.674;23.282;2023-04-01T09:34:25;4.65;;;3.30;;
6392;SDS011;3229;42.674;23.282;2023-04-01T09:37:01;7.70;;;3.72;;
6392;SDS011;3229;42.674;23.282;2023-04-01T09:39:49;6.25;;;3.40;;
6392;SDS011;3229;42.674;23.282;2023-04-01T09:42:44;10.38;;;3.72;;
6392;SDS011;3229;42.674;23.282;2023-04-01T09:45:25;7.55;;;3.78;;
6392;SDS011;3229;42.674;23.282;2023-04-01T09:48:08;4.45;;;2.95;;
6392;SDS011;3229;42.674;23.282;2023-04-01T09:50:47;4.32;;;3.53;;
6392;SDS011;3229;42.674;23.282;2023-04-01T09:53:28;5.82;;;3.17;;
6392;SDS011;3229;42.674;23.282;2023-04-01T09:59:30;7.57;;;3.33;;
6392;SDS011;3229;42.674;23.282;2023-04-01T10:08:38;7.15;;;3.13;;
6392;SDS011;3229;42.674;23.282;2023-04-01T10:11:37;4.47;;;2.92;;
6392;SDS011;3229;42.674;23.282;2023-04-01T10:14:36;5.03;;;2.95;;
6392;SDS011;3229;42.674;23.282;2023-04-01T10:17:44;6.32;;;3.15;;
6392;SDS011;3229;42.674;23.282;2023-04-01T10:20:40;5.25;;;3.00;;
6392;SDS011;3229;42.674;23.282;2023-04-01T10:23:21;6.10;;;3.28;;
6392;SDS011;3229;42.674;23.282;2023-04-01T10:26:08;5.47;;;2.80;;
6392;SDS011;3229;42.674;23.282;2023-04-01T10:29:15;8.73;;;2.97;;
6392;SDS011;3229;42.674;23.282;2023-04-01T10:41:29;16.98;;;3.60;;
6392;SDS011;3229;42.674;23.282;2023-04-01T10:50:32;3.92;;;3.10;;
6392;SDS011;3229;42.674;23.282;2023-04-01T10:53:28;4.95;;;2.95;;
6392;SDS011;3229;42.674;23.282;2023-04-01T10:59:30;7.97;;;2.92;;
6392;SDS011;3229;42.674;23.282;2023-04-01T11:21:02;3.42;;;2.25;;
6392;SDS011;3229;42.674;23.282;2023-04-01T11:23:54;3.10;;;2.50;;
6392;SDS011;3229;42.674;23.282;2023-04-01T11:26:33;6.13;;;2.70;;
6392;SDS011;3229;42.674;23.282;2023-04-01T11:29:18;5.97;;;2.80;;
6392;SDS011;3229;42.674;23.282;2023-04-01T11:32:04;7.18;;;3.08;;
6392;SDS011;3229;42.674;23.282;2023-04-01T11:34:43;4.47;;;2.85;;
6392;SDS011;3229;42.674;23.282;2023-04-01T11:37:35;4.72;;;2.67;;
6392;SDS011;3229;42.674;23.282;2023-04-01T11:40:14;3.45;;;2.45;;
6392;SDS011;3229;42.674;23.282;2023-04-01T11:42:54;7.18;;;3.25;;
6392;SDS011;3229;42.674;23.282;2023-04-01T11:45:33;8.93;;;3.25;;
6392;SDS011;3229;42.674;23.282;2023-04-01T11:48:15;3.35;;;2.60;;
6392;SDS011;3229;42.674;23.282;2023-04-01T11:50:56;4.47;;;2.50;;
6392;SDS011;3229;42.674;23.282;2023-04-01T11:53:42;5.05;;;3.10;;
6392;SDS011;3229;42.674;23.282;2023-04-01T11:56:21;5.15;;;2.85;;
6392;SDS011;3229;42.674;23.282;2023-04-01T12:02:11;6.97;;;2.45;;
6392;SDS011;3229;42.674;23.282;2023-04-01T12:04:54;3.30;;;2.33;;
6392;SDS011;3229;42.674;23.282;2023-04-01T12:10:18;4.77;;;2.43;;
6392;SDS011;3229;42.674;23.282;2023-04-01T12:12:49;6.80;;;2.23;;
6392;SDS011;3229;42.674;23.282;2023-04-01T12:15:23;6.30;;;2.77;;
6392;SDS011;3229;42.674;23.282;2023-04-01T12:18:00;4.57;;;2.30;;
6392;SDS011;3229;42.674;23.282;2023-04-01T12:20:43;3.27;;;2.53;;
6392;SDS011;3229;42.674;23.282;2023-04-01T12:23:20;4.80;;;2.30;;
6392;SDS011;3229;42.674;23.282;2023-04-01T12:29:11;3.83;;;2.30;;
6392;SDS011;3229;42.674;23.282;2023-04-01T12:31:56;3.53;;;2.43;;
6392;SDS011;3229;42.674;23.282;2023-04-01T12:34:42;9.05;;;2.72;;
6392;SDS011;3229;42.674;23.282;2023-04-01T12:37:26;3.83;;;2.47;;
6392;SDS011;3229;42.674;23.282;2023-04-01T12:40:06;8.20;;;2.77;;
6392;SDS011;3229;42.674;23.282;2023-04-01T12:42:57;7.43;;;2.43;;
6392;SDS011;3229;42.674;23.282;2023-04-01T12:45:49;2.70;;;2.30;;
6392;SDS011;3229;42.674;23.282;2023-04-01T12:51:23;4.17;;;2.20;;
6392;SDS011;3229;42.674;23.282;2023-04-01T12:57:13;6.00;;;2.93;;
6392;SDS011;3229;42.674;23.282;2023-04-01T13:00:03;3.40;;;2.20;;
6392;SDS011;3229;42.674;23.282;2023-04-01T13:02:40;4.33;;;2.33;;
6392;SDS011;3229;42.674;23.282;2023-04-01T13:08:22;4.00;;;2.43;;
6392;SDS011;3229;42.674;23.282;2023-04-01T13:11:01;3.93;;;2.30;;
6392;SDS011;3229;42.674;23.282;2023-04-01T13:13:43;3.77;;;2.10;;
6392;SDS011;3229;42.674;23.282;2023-04-01T13:16:36;3.63;;;2.93;;
6392;SDS011;3229;42.674;23.282;2023-04-01T13:19:08;3.97;;;2.47;;
6392;SDS011;3229;42.674;23.282;2023-04-01T13:21:41;3.57;;;2.70;;
6392;SDS011;3229;42.674;23.282;2023-04-01T13:24:25;6.83;;;2.47;;
6392;SDS011;3229;42.674;23.282;2023-04-01T13:27:04;5.17;;;2.40;;
6392;SDS011;3229;42.674;23.282;2023-04-01T13:29:38;3.43;;;2.27;;
6392;SDS011;3229;42.674;23.282;2023-04-01T13:32:18;5.00;;;2.40;;
6392;SDS011;3229;42.674;23.282;2023-04-01T13:34:56;4.07;;;2.38;;
6392;SDS011;3229;42.674;23.282;2023-04-01T13:37:37;5.53;;;2.27;;
6392;SDS011;3229;42.674;23.282;2023-04-01T13:40:26;3.10;;;2.00;;
6392;SDS011;3229;42.674;23.282;2023-04-01T13:43:07;4.07;;;2.33;;
6392;SDS011;3229;42.674;23.282;2023-04-01T13:45:50;3.77;;;2.10;;
6392;SDS011;3229;42.674;23.282;2023-04-01T13:48:39;3.77;;;2.43;;
6392;SDS011;3229;42.674;23.282;2023-04-01T13:51:29;3.25;;;2.38;;
6392;SDS011;3229;42.674;23.282;2023-04-01T13:57:35;2.33;;;1.83;;
6392;SDS011;3229;42.674;23.282;2023-04-01T14:06:02;4.07;;;2.35;;
6392;SDS011;3229;42.674;23.282;2023-04-01T14:08:42;3.05;;;2.13;;
6392;SDS011;3229;42.674;23.282;2023-04-01T14:11:22;3.63;;;2.22;;
6392;SDS011;3229;42.674;23.282;2023-04-01T14:13:59;2.87;;;2.10;;
6392;SDS011;3229;42.674;23.282;2023-04-01T14:19:41;2.43;;;1.90;;
6392;SDS011;3229;42.674;23.282;2023-04-01T14:22:28;2.03;;;1.70;;
6392;SDS011;3229;42.674;23.282;2023-04-01T14:25:20;2.77;;;1.67;;
6392;SDS011;3229;42.674;23.282;2023-04-01T14:28:06;3.83;;;1.80;;
6392;SDS011;3229;42.674;23.282;2023-04-01T14:30:50;2.70;;;1.90;;
6392;SDS011;3229;42.674;23.282;2023-04-01T14:33:37;1.80;;;1.70;;
6392;SDS011;3229;42.674;23.282;2023-04-01T14:36:27;2.60;;;1.80;;
6392;SDS011;3229;42.674;23.282;2023-04-01T14:39:07;2.70;;;1.90;;
6392;SDS011;3229;42.674;23.282;2023-04-01T14:41:48;2.93;;;2.27;;
6392;SDS011;3229;42.674;23.282;2023-04-01T14:44:36;1.83;;;1.73;;
6392;SDS011;3229;42.674;23.282;2023-04-01T14:47:24;2.20;;;2.00;;
6392;SDS011;3229;42.674;23.282;2023-04-01T14:50:03;1.87;;;1.70;;
6392;SDS011;3229;42.674;23.282;2023-04-01T14:52:38;2.27;;;2.00;;
6392;SDS011;3229;42.674;23.282;2023-04-01T14:55:17;3.13;;;1.98;;
6392;SDS011;3229;42.674;23.282;2023-04-01T14:57:58;2.17;;;1.97;;
6392;SDS011;3229;42.674;23.282;2023-04-01T15:00:26;2.40;;;1.80;;
6392;SDS011;3229;42.674;23.282;2023-04-01T15:02:55;2.63;;;2.05;;
6392;SDS011;3229;42.674;23.282;2023-04-01T15:05:35;1.88;;;1.70;;
6392;SDS011;3229;42.674;23.282;2023-04-01T15:08:11;2.10;;;1.87;;
6392;SDS011;3229;42.674;23.282;2023-04-01T15:10:53;2.27;;;1.73;;
6392;SDS011;3229;42.674;23.282;2023-04-01T15:13:43;1.70;;;1.60;;
6392;SDS011;3229;42.674;23.282;2023-04-01T15:16:34;1.70;;;1.60;;
6392;SDS011;3229;42.674;23.282;2023-04-01T15:19:11;2.30;;;1.80;;
6392;SDS011;3229;42.674;23.282;2023-04-01T15:21:57;2.27;;;1.80;;
6392;SDS011;3229;42.674;23.282;2023-04-01T15:24:46;3.30;;;2.10;;
6392;SDS011;3229;42.674;23.282;2023-04-01T15:27:32;2.00;;;1.70;;
6392;SDS011;3229;42.674;23.282;2023-04-01T15:30:18;1.50;;;1.40;;
6392;SDS011;3229;42.674;23.282;2023-04-01T15:33:01;2.65;;;1.95;;
6392;SDS011;3229;42.674;23.282;2023-04-01T15:35:51;2.70;;;1.93;;
6392;SDS011;3229;42.674;23.282;2023-04-01T15:38:32;4.50;;;1.93;;
6392;SDS011;3229;42.674;23.282;2023-04-01T15:41:11;2.37;;;1.83;;
6392;SDS011;3229;42.674;23.282;2023-04-01T15:43:42;1.90;;;1.70;;
6392;SDS011;3229;42.674;23.282;2023-04-01T15:46:20;3.73;;;1.70;;
6392;SDS011;3229;42.674;23.282;2023-04-01T15:49:10;1.90;;;1.57;;
6392;SDS011;3229;42.674;23.282;2023-04-01T15:51:48;2.70;;;1.80;;
6392;SDS011;3229;42.674;23.282;2023-04-01T15:57:39;2.27;;;1.80;;
6392;SDS011;3229;42.674;23.282;2023-04-01T16:00:25;3.53;;;1.70;;
6392;SDS011;3229;42.674;23.282;2023-04-01T16:05:52;2.57;;;1.80;;
6392;SDS011;3229;42.674;23.282;2023-04-01T16:08:37;2.43;;;1.70;;
6392;SDS011;3229;42.674;23.282;2023-04-01T16:11:18;3.53;;;1.70;;
6392;SDS011;3229;42.674;23.282;2023-04-01T16:13:58;1.73;;;1.63;;
6392;SDS011;3229;42.674;23.282;2023-04-01T16:16:53;4.07;;;1.80;;
6392;SDS011;3229;42.674;23.282;2023-04-01T16:19:31;2.10;;;1.90;;
6392;SDS011;3229;42.674;23.282;2023-04-01T16:22:06;2.10;;;1.90;;
6392;SDS011;3229;42.674;23.282;2023-04-01T16:24:38;1.97;;;1.87;;
6392;SDS011;3229;42.674;23.282;2023-04-01T16:27:11;2.67;;;2.13;;
6392;SDS011;3229;42.674;23.282;2023-04-01T16:29:45;2.60;;;2.00;;
6392;SDS011;3229;42.674;23.282;2023-04-01T16:32:23;3.20;;;1.80;;
6392;SDS011;3229;42.674;23.282;2023-04-01T16:35:16;3.13;;;1.70;;
6392;SDS011;3229;42.674;23.282;2023-04-01T16:37:53;1.93;;;1.83;;
6392;SDS011;3229;42.674;23.282;2023-04-01T16:40:33;1.77;;;1.67;;
6392;SDS011;3229;42.674;23.282;2023-04-01T16:43:10;4.77;;;2.40;;
6392;SDS011;3229;42.674;23.282;2023-04-01T16:45:45;4.70;;;2.23;;
6392;SDS011;3229;42.674;23.282;2023-04-01T16:48:21;2.17;;;2.00;;
6392;SDS011;3229;42.674;23.282;2023-04-01T16:50:55;1.90;;;1.80;;
6392;SDS011;3229;42.674;23.282;2023-04-01T16:53:30;2.00;;;1.80;;
6392;SDS011;3229;42.674;23.282;2023-04-01T16:56:08;2.10;;;1.90;;
6392;SDS011;3229;42.674;23.282;2023-04-01T16:58:40;2.23;;;2.03;;
6392;SDS011;3229;42.674;23.282;2023-04-01T17:01:16;2.20;;;2.00;;
6392;SDS011;3229;42.674;23.282;2023-04-01T17:03:49;2.90;;;1.90;;
6392;SDS011;3229;42.674;23.282;2023-04-01T17:06:22;2.20;;;1.93;;
6392;SDS011;3229;42.674;23.282;2023-04-01T17:09:17;1.70;;;1.60;;
6392;SDS011;3229;42.674;23.282;2023-04-01T17:11:53;2.17;;;1.97;;
6392;SDS011;3229;42.674;23.282;2023-04-01T17:14:28;2.00;;;1.90;;
6392;SDS011;3229;42.674;23.282;2023-04-01T17:17:11;2.20;;;2.00;;
6392;SDS011;3229;42.674;23.282;2023-04-01T17:19:49;2.03;;;1.93;;
6392;SDS011;3229;42.674;23.282;2023-04-01T17:22:29;1.90;;;1.80;;
6392;SDS011;3229;42.674;23.282;2023-04-01T17:25:14;2.20;;;1.77;;
6392;SDS011;3229;42.674;23.282;2023-04-01T17:27:48;1.90;;;1.80;;